Josco Star — VRBS3 — position and weather

sailwx.info

Track history (hours):
 
Tides and Currents Weather Stations Pressure Air Temp Water Temp Dewpoint Dewpoint Depression Visibility Wind Speed Wind Dir Waves Ship Positions

Josco Star

Last reported at 2017-Dec-11 16:54 UTC. Time now 2017-Dec-12 17:39 UTC.
Position N 31°39' E 121°13'.

Length 143 m; draft 8.5 m.

Type: Cargo ship. MMSI: 477105800.

Date/timePositionNaut miles runAvg speedWind from/ knotsBaromVisibWave heightAir tempDewpointWater temp
2017-Dec-11 16:54N 31°39' E 121°13'0 0.0
2017-Dec-11 16:30N 31°39' E 121°13'0 0.0
2017-Dec-11 15:30N 31°39' E 121°13'0 0.1
2017-Dec-11 14:30N 31°39' E 121°13'0 0.1
2017-Dec-11 14:00N 31°39' E 121°13'0 0.1
2017-Dec-11 13:30N 31°39' E 121°13'0 0.1
2017-Dec-11 12:57N 31°39' E 121°13'0 0.1
2017-Dec-11 12:30N 31°39' E 121°13'0 0.1
2017-Dec-11 12:00N 31°39' E 121°13'0 0.1
2017-Dec-11 11:30N 31°39' E 121°13'0 0.0
2017-Dec-11 11:00N 31°39' E 121°13'0 0.1
2017-Dec-11 10:30N 31°39' E 121°13'0 0.0
2017-Dec-11 09:48N 31°39' E 121°13'0 0.0
2017-Dec-11 09:30N 31°39' E 121°13'0 0.0
2017-Dec-11 09:00N 31°39' E 121°13'0 0.0
2017-Dec-11 08:30N 31°39' E 121°13'0 0.0
2017-Dec-11 07:54N 31°39' E 121°13'1 2.2
2017-Dec-11 07:30N 31°39' E 121°14'0 0.6
2017-Dec-11 06:59N 31°39' E 121°14'0 0.0
2017-Dec-11 06:29N 31°39' E 121°14'0 0.0
2017-Dec-11 05:56N 31°39' E 121°14'0 0.0
2017-Dec-11 05:05N 31°39' E 121°14'0 0.0
2017-Dec-11 04:59N 31°39' E 121°14'0 0.1
2017-Dec-11 04:23N 31°39' E 121°14'0 0.0
2017-Dec-11 03:59N 31°39' E 121°14'0 0.0
2017-Dec-11 03:29N 31°39' E 121°14'0 0.0
2017-Dec-11 02:56N 31°39' E 121°14'0 0.0
2017-Dec-11 02:20N 31°39' E 121°14'0 0.0
2017-Dec-11 01:59N 31°39' E 121°14'0 0.0
2017-Dec-11 01:29N 31°39' E 121°14'0 0.2
2017-Dec-11 00:59N 31°39' E 121°14'0 0.1
2017-Dec-11 00:29N 31°39' E 121°14'0 0.1
2017-Dec-10 23:59N 31°39' E 121°14'0 0.0
2017-Dec-10 23:29N 31°39' E 121°14'0 0.0
2017-Dec-10 22:47N 31°39' E 121°14'0 0.0
2017-Dec-10 22:29N 31°39' E 121°14'0 0.0
2017-Dec-10 21:53N 31°39' E 121°14'0 0.1
2017-Dec-10 21:29N 31°39' E 121°14'0 0.2
2017-Dec-10 20:59N 31°39' E 121°14'0 0.1
2017-Dec-10 20:05N 31°39' E 121°14'0 0.0
2017-Dec-10 19:56N 31°39' E 121°14'0 0.0
2017-Dec-10 19:23N 31°39' E 121°14'0 0.0
2017-Dec-10 18:56N 31°39' E 121°14'0 0.0
2017-Dec-10 18:23N 31°39' E 121°14'0 0.1
2017-Dec-10 17:50N 31°39' E 121°14'0 0.0
2017-Dec-10 17:29N 31°39' E 121°14'0 0.1
2017-Dec-10 16:59N 31°39' E 121°14'0 0.1
2017-Dec-10 16:29N 31°39' E 121°14'0 0.0
2017-Dec-10 15:53N 31°39' E 121°14'0 0.1
2017-Dec-10 15:29N 31°39' E 121°14'0 0.0
2017-Dec-10 14:47N 31°39' E 121°14'0 0.0
2017-Dec-10 14:29N 31°39' E 121°14'0 0.0
2017-Dec-10 13:23N 31°39' E 121°14'0 0.0
2017-Dec-10 12:59N 31°39' E 121°14'0 0.1
2017-Dec-10 12:20N 31°39' E 121°14'0 0.2
2017-Dec-10 11:53N 31°39' E 121°14'0 0.0
2017-Dec-10 11:26N 31°39' E 121°14'0 0.0
2017-Dec-10 10:38N 31°39' E 121°14'0 0.0
2017-Dec-10 10:29N 31°39' E 121°14'0 0.1
2017-Dec-10 09:56N 31°39' E 121°14'0 0.3
2017-Dec-10 09:29N 31°39' E 121°14'0 0.2
2017-Dec-10 08:59N 31°39' E 121°14'39 2.4
2017-Dec-09 16:51N 32°00' E 120°35'513.6
2017-Dec-09 16:30N 32°02' E 120°30'6 0.2
2017-Dec-08 02:29N 32°01' E 120°23'612.3
2017-Dec-08 02:00N 32°02' E 120°30'8211.0
2017-Dec-07 18:30N 31°13' E 121°48'714.3
2017-Dec-07 18:00N 31°08' E 121°54'612.5
2017-Dec-07 17:30N 31°05' E 122°01'5 9.3
2017-Dec-07 17:00N 31°04' E 122°06'5 9.1
2017-Dec-07 16:29N 31°03' E 122°11'4 8.0
2017-Dec-07 16:00N 31°03' E 122°16'6 9.8
2017-Dec-07 15:23N 31°02' E 122°23'811.2
2017-Dec-07 14:43N 31°00' E 122°31'  
2017-Dec-04 10:30N 34°27' E 137°02'1411.8
2017-Dec-04 09:17N 34°39' E 136°52'415.3
2017-Dec-04 09:00N 34°42' E 136°48'815.4
2017-Dec-04 08:30N 34°49' E 136°45'715.0
2017-Dec-04 08:00N 34°57' E 136°46'5 9.8
2017-Dec-04 07:30N 35°01' E 136°48'0 0.3
2017-Dec-04 06:57N 35°01' E 136°48'0 0.0
2017-Dec-04 06:27N 35°01' E 136°48'0 0.0
2017-Dec-04 05:57N 35°01' E 136°48'0 0.0
2017-Dec-04 05:27N 35°01' E 136°48'0 0.0
2017-Dec-04 04:57N 35°01' E 136°48'0 0.0
2017-Dec-04 04:27N 35°01' E 136°48'0 0.0
2017-Dec-04 03:57N 35°01' E 136°48'0 0.0
2017-Dec-04 03:27N 35°01' E 136°48'0 0.0
2017-Dec-04 02:57N 35°01' E 136°48'0 0.0
2017-Dec-04 02:27N 35°01' E 136°48'0 0.0
2017-Dec-04 01:57N 35°01' E 136°48'0 0.0
2017-Dec-04 01:27N 35°01' E 136°48'0 0.0
2017-Dec-04 00:57N 35°01' E 136°48'0 0.0
2017-Dec-04 00:27N 35°01' E 136°48'0 0.0
2017-Dec-03 23:57N 35°01' E 136°48'0 0.0
2017-Dec-03 23:27N 35°01' E 136°48'0 0.0
2017-Dec-03 22:57N 35°01' E 136°48'0 1.0
2017-Dec-03 22:30N 35°01' E 136°48'4 7.3
2017-Dec-03 22:00N 34°58' E 136°46'612.1
2017-Dec-03 21:30N 34°52' E 136°46'713.1
2017-Dec-03 21:00N 34°45' E 136°47'713.3
2017-Dec-03 20:30N 34°40' E 136°52'612.5
2017-Dec-03 19:59N 34°36' E 136°58'612.9
2017-Dec-03 19:30N 34°32' E 137°04'711.9
2017-Dec-03 18:56N 34°32' E 137°12'512.2
2017-Dec-03 18:29N 34°32' E 137°19'911.8
2017-Dec-03 17:44N 34°31' E 137°30'311.9
2017-Dec-03 17:28N 34°30' E 137°34'611.9
2017-Dec-03 17:00N 34°30' E 137°40'611.3
2017-Dec-03 16:30N 34°28' E 137°47'610.6
2017-Dec-03 15:57N 34°25' E 137°53'2 1.5
2017-Dec-03 14:56N 34°25' E 137°54'1 2.2
2017-Dec-03 14:23N 34°26' E 137°54'2 2.2
2017-Dec-03 13:27N 34°28' E 137°53'5 9.9
2017-Dec-03 12:59N 34°31' E 137°57'613.1
2017-Dec-03 12:30N 34°32' E 138°04'713.3
2017-Dec-03 11:59N 34°32' E 138°13'612.2
2017-Dec-03 11:30N 34°31' E 138°20'612.4
2017-Dec-03 11:00N 34°32' E 138°27'612.5
2017-Dec-03 10:31N 34°32' E 138°35'712.6
2017-Dec-03 09:58N 34°32' E 138°43'612.7
2017-Dec-03 09:30N 34°32' E 138°50'612.2
2017-Dec-03 09:01N 34°32' E 138°58'712.1
2017-Dec-03 08:28N 34°36' E 139°04'613.2
2017-Dec-03 08:00N 34°41' E 139°08'713.2
2017-Dec-03 07:29N 34°46' E 139°14'713.4
2017-Dec-03 06:59N 34°51' E 139°19'612.8
2017-Dec-03 06:30N 34°54' E 139°26'612.2
2017-Dec-03 06:00N 34°58' E 139°32'612.9
2017-Dec-03 05:30N 35°02' E 139°38'714.6
2017-Dec-03 05:00N 35°07' E 139°44'713.5
2017-Dec-03 04:30N 35°13' E 139°46'611.7
2017-Dec-03 04:00N 35°19' E 139°43'611.2
2017-Dec-03 03:30N 35°24' E 139°42'2 4.2
2017-Dec-03 02:59N 35°26' E 139°41'0 0.2
2017-Dec-03 02:29N 35°26' E 139°41'0 0.0
2017-Dec-03 01:59N 35°26' E 139°41'0 0.0
2017-Dec-03 01:29N 35°26' E 139°41'0 0.0
2017-Dec-03 00:59N 35°26' E 139°41'0 0.0
2017-Dec-03 00:29N 35°26' E 139°41'0 0.0
2017-Dec-02 23:59N 35°26' E 139°41'0 0.0
2017-Dec-02 23:29N 35°26' E 139°41'0 0.0
2017-Dec-02 22:59N 35°26' E 139°41'0 0.0
2017-Dec-02 22:29N 35°26' E 139°41'0 0.8
2017-Dec-02 22:00N 35°26' E 139°41'2 4.3
2017-Dec-02 21:31N 35°26' E 139°43'5 9.0
2017-Dec-02 21:00N 35°28' E 139°48'611.2
2017-Dec-02 20:30N 35°33' E 139°50'4 7.7
2017-Dec-02 20:00N 35°36' E 139°47'0 0.2
2017-Dec-02 19:30N 35°36' E 139°47'0 0.0
2017-Dec-02 19:00N 35°36' E 139°47'0 0.0
2017-Dec-02 18:27N 35°36' E 139°47'0 0.0
2017-Dec-02 18:00N 35°36' E 139°47'0 0.0
2017-Dec-02 17:30N 35°36' E 139°47'0 0.0
2017-Dec-02 17:00N 35°36' E 139°47'0 0.0
2017-Dec-02 16:30N 35°36' E 139°47'0 0.0
2017-Dec-02 16:00N 35°36' E 139°47'0 0.0
2017-Dec-02 15:30N 35°36' E 139°47'0 0.0
2017-Dec-02 15:00N 35°36' E 139°47'0 0.0
2017-Dec-02 14:30N 35°36' E 139°47'0 0.0
2017-Dec-02 14:00N 35°36' E 139°47'0 0.0
2017-Dec-02 13:30N 35°36' E 139°47'0 0.0
2017-Dec-02 13:00N 35°36' E 139°47'0 0.0
2017-Dec-02 12:30N 35°36' E 139°47'0 0.4
2017-Dec-02 12:00N 35°36' E 139°47'3 5.3
2017-Dec-02 11:30N 35°34' E 139°49'510.8
2017-Dec-02 11:00N 35°29' E 139°52'713.7
2017-Dec-02 10:30N 35°24' E 139°46'612.1
2017-Dec-02 10:00N 35°18' E 139°45'612.1
2017-Dec-02 09:30N 35°12' E 139°47'713.6
2017-Dec-02 09:00N 35°06' E 139°44'815.1
2017-Dec-02 08:30N 35°01' E 139°37'815.6
2017-Dec-02 08:00N 34°56' E 139°30'815.6
2017-Dec-02 07:30N 34°52' E 139°22'815.4
2017-Dec-02 07:00N 34°46' E 139°15'814.8
2017-Dec-02 06:30N 34°41' E 139°09'714.8
2017-Dec-02 06:00N 34°36' E 139°03'714.1
2017-Dec-02 05:30N 34°31' E 138°56'914.5
2017-Dec-02 04:54N 34°27' E 138°47'614.6
2017-Dec-02 04:29N 34°25' E 138°40'714.5
2017-Dec-02 04:00N 34°22' E 138°32'715.0
2017-Dec-02 03:30N 34°19' E 138°24'714.8
2017-Dec-02 03:00N 34°16' E 138°16'714.7
2017-Dec-02 02:30N 34°13' E 138°08'714.2
2017-Dec-02 02:00N 34°10' E 137°60'  
Track history (hours):
 
Tides and Currents Weather Stations Pressure Air Temp Water Temp Dewpoint Dewpoint Depression Visibility Wind Speed Wind Dir Waves Ship Positions

Josco Star

Last reported at 2017-Dec-11 16:54 UTC. Time now 2017-Dec-12 17:39 UTC.
Position N 31°39' E 121°13'.

Length 143 m; draft 8.5 m.

Type: Cargo ship. MMSI: 477105800.

Date/timePositionNaut miles runAvg speedWind from/ knotsBaromVisibWave heightAir tempDewpointWater temp
2017-Dec-11 16:54N 31°39' E 121°13'0 0.0
2017-Dec-11 16:30N 31°39' E 121°13'0 0.0
2017-Dec-11 15:30N 31°39' E 121°13'0 0.1
2017-Dec-11 14:30N 31°39' E 121°13'0 0.1
2017-Dec-11 14:00N 31°39' E 121°13'0 0.1
2017-Dec-11 13:30N 31°39' E 121°13'0 0.1
2017-Dec-11 12:57N 31°39' E 121°13'0 0.1
2017-Dec-11 12:30N 31°39' E 121°13'0 0.1
2017-Dec-11 12:00N 31°39' E 121°13'0 0.1
2017-Dec-11 11:30N 31°39' E 121°13'0 0.0
2017-Dec-11 11:00N 31°39' E 121°13'0 0.1
2017-Dec-11 10:30N 31°39' E 121°13'0 0.0
2017-Dec-11 09:48N 31°39' E 121°13'0 0.0
2017-Dec-11 09:30N 31°39' E 121°13'0 0.0
2017-Dec-11 09:00N 31°39' E 121°13'0 0.0
2017-Dec-11 08:30N 31°39' E 121°13'0 0.0
2017-Dec-11 07:54N 31°39' E 121°13'1 2.2
2017-Dec-11 07:30N 31°39' E 121°14'0 0.6
2017-Dec-11 06:59N 31°39' E 121°14'0 0.0
2017-Dec-11 06:29N 31°39' E 121°14'0 0.0
2017-Dec-11 05:56N 31°39' E 121°14'0 0.0
2017-Dec-11 05:05N 31°39' E 121°14'0 0.0
2017-Dec-11 04:59N 31°39' E 121°14'0 0.1
2017-Dec-11 04:23N 31°39' E 121°14'0 0.0
2017-Dec-11 03:59N 31°39' E 121°14'0 0.0
2017-Dec-11 03:29N 31°39' E 121°14'0 0.0
2017-Dec-11 02:56N 31°39' E 121°14'0 0.0
2017-Dec-11 02:20N 31°39' E 121°14'0 0.0
2017-Dec-11 01:59N 31°39' E 121°14'0 0.0
2017-Dec-11 01:29N 31°39' E 121°14'0 0.2
2017-Dec-11 00:59N 31°39' E 121°14'0 0.1
2017-Dec-11 00:29N 31°39' E 121°14'0 0.1
2017-Dec-10 23:59N 31°39' E 121°14'0 0.0
2017-Dec-10 23:29N 31°39' E 121°14'0 0.0
2017-Dec-10 22:47N 31°39' E 121°14'0 0.0
2017-Dec-10 22:29N 31°39' E 121°14'0 0.0
2017-Dec-10 21:53N 31°39' E 121°14'0 0.1
2017-Dec-10 21:29N 31°39' E 121°14'0 0.2
2017-Dec-10 20:59N 31°39' E 121°14'0 0.1
2017-Dec-10 20:05N 31°39' E 121°14'0 0.0
2017-Dec-10 19:56N 31°39' E 121°14'0 0.0
2017-Dec-10 19:23N 31°39' E 121°14'0 0.0
2017-Dec-10 18:56N 31°39' E 121°14'0 0.0
2017-Dec-10 18:23N 31°39' E 121°14'0 0.1
2017-Dec-10 17:50N 31°39' E 121°14'0 0.0
2017-Dec-10 17:29N 31°39' E 121°14'0 0.1
2017-Dec-10 16:59N 31°39' E 121°14'0 0.1
2017-Dec-10 16:29N 31°39' E 121°14'0 0.0
2017-Dec-10 15:53N 31°39' E 121°14'0 0.1
2017-Dec-10 15:29N 31°39' E 121°14'0 0.0
2017-Dec-10 14:47N 31°39' E 121°14'0 0.0
2017-Dec-10 14:29N 31°39' E 121°14'0 0.0
2017-Dec-10 13:23N 31°39' E 121°14'0 0.0
2017-Dec-10 12:59N 31°39' E 121°14'0 0.1
2017-Dec-10 12:20N 31°39' E 121°14'0 0.2
2017-Dec-10 11:53N 31°39' E 121°14'0 0.0
2017-Dec-10 11:26N 31°39' E 121°14'0 0.0
2017-Dec-10 10:38N 31°39' E 121°14'0 0.0
2017-Dec-10 10:29N 31°39' E 121°14'0 0.1
2017-Dec-10 09:56N 31°39' E 121°14'0 0.3
2017-Dec-10 09:29N 31°39' E 121°14'0 0.2
2017-Dec-10 08:59N 31°39' E 121°14'39 2.4
2017-Dec-09 16:51N 32°00' E 120°35'513.6
2017-Dec-09 16:30N 32°02' E 120°30'6 0.2
2017-Dec-08 02:29N 32°01' E 120°23'612.3
2017-Dec-08 02:00N 32°02' E 120°30'8211.0
2017-Dec-07 18:30N 31°13' E 121°48'714.3
2017-Dec-07 18:00N 31°08' E 121°54'612.5
2017-Dec-07 17:30N 31°05' E 122°01'5 9.3
2017-Dec-07 17:00N 31°04' E 122°06'5 9.1
2017-Dec-07 16:29N 31°03' E 122°11'4 8.0
2017-Dec-07 16:00N 31°03' E 122°16'6 9.8
2017-Dec-07 15:23N 31°02' E 122°23'811.2
2017-Dec-07 14:43N 31°00' E 122°31'  
2017-Dec-04 10:30N 34°27' E 137°02'1411.8
2017-Dec-04 09:17N 34°39' E 136°52'415.3
2017-Dec-04 09:00N 34°42' E 136°48'815.4
2017-Dec-04 08:30N 34°49' E 136°45'715.0
2017-Dec-04 08:00N 34°57' E 136°46'5 9.8
2017-Dec-04 07:30N 35°01' E 136°48'0 0.3
2017-Dec-04 06:57N 35°01' E 136°48'0 0.0
2017-Dec-04 06:27N 35°01' E 136°48'0 0.0
2017-Dec-04 05:57N 35°01' E 136°48'0 0.0
2017-Dec-04 05:27N 35°01' E 136°48'0 0.0
2017-Dec-04 04:57N 35°01' E 136°48'0 0.0
2017-Dec-04 04:27N 35°01' E 136°48'0 0.0
2017-Dec-04 03:57N 35°01' E 136°48'0 0.0
2017-Dec-04 03:27N 35°01' E 136°48'0 0.0
2017-Dec-04 02:57N 35°01' E 136°48'0 0.0
2017-Dec-04 02:27N 35°01' E 136°48'0 0.0
2017-Dec-04 01:57N 35°01' E 136°48'0 0.0
2017-Dec-04 01:27N 35°01' E 136°48'0 0.0
2017-Dec-04 00:57N 35°01' E 136°48'0 0.0
2017-Dec-04 00:27N 35°01' E 136°48'0 0.0
2017-Dec-03 23:57N 35°01' E 136°48'0 0.0
2017-Dec-03 23:27N 35°01' E 136°48'0 0.0
2017-Dec-03 22:57N 35°01' E 136°48'0 1.0
2017-Dec-03 22:30N 35°01' E 136°48'4 7.3
2017-Dec-03 22:00N 34°58' E 136°46'612.1
2017-Dec-03 21:30N 34°52' E 136°46'713.1
2017-Dec-03 21:00N 34°45' E 136°47'713.3
2017-Dec-03 20:30N 34°40' E 136°52'612.5
2017-Dec-03 19:59N 34°36' E 136°58'612.9
2017-Dec-03 19:30N 34°32' E 137°04'711.9
2017-Dec-03 18:56N 34°32' E 137°12'512.2
2017-Dec-03 18:29N 34°32' E 137°19'911.8
2017-Dec-03 17:44N 34°31' E 137°30'311.9
2017-Dec-03 17:28N 34°30' E 137°34'611.9
2017-Dec-03 17:00N 34°30' E 137°40'611.3
2017-Dec-03 16:30N 34°28' E 137°47'610.6
2017-Dec-03 15:57N 34°25' E 137°53'2 1.5
2017-Dec-03 14:56N 34°25' E 137°54'1 2.2
2017-Dec-03 14:23N 34°26' E 137°54'2 2.2
2017-Dec-03 13:27N 34°28' E 137°53'5 9.9
2017-Dec-03 12:59N 34°31' E 137°57'613.1
2017-Dec-03 12:30N 34°32' E 138°04'713.3
2017-Dec-03 11:59N 34°32' E 138°13'612.2
2017-Dec-03 11:30N 34°31' E 138°20'612.4
2017-Dec-03 11:00N 34°32' E 138°27'612.5
2017-Dec-03 10:31N 34°32' E 138°35'712.6
2017-Dec-03 09:58N 34°32' E 138°43'612.7
2017-Dec-03 09:30N 34°32' E 138°50'612.2
2017-Dec-03 09:01N 34°32' E 138°58'712.1
2017-Dec-03 08:28N 34°36' E 139°04'613.2
2017-Dec-03 08:00N 34°41' E 139°08'713.2
2017-Dec-03 07:29N 34°46' E 139°14'713.4
2017-Dec-03 06:59N 34°51' E 139°19'612.8
2017-Dec-03 06:30N 34°54' E 139°26'612.2
2017-Dec-03 06:00N 34°58' E 139°32'612.9
2017-Dec-03 05:30N 35°02' E 139°38'714.6
2017-Dec-03 05:00N 35°07' E 139°44'713.5
2017-Dec-03 04:30N 35°13' E 139°46'611.7
2017-Dec-03 04:00N 35°19' E 139°43'611.2
2017-Dec-03 03:30N 35°24' E 139°42'2 4.2
2017-Dec-03 02:59N 35°26' E 139°41'0 0.2
2017-Dec-03 02:29N 35°26' E 139°41'0 0.0
2017-Dec-03 01:59N 35°26' E 139°41'0 0.0
2017-Dec-03 01:29N 35°26' E 139°41'0 0.0
2017-Dec-03 00:59N 35°26' E 139°41'0 0.0
2017-Dec-03 00:29N 35°26' E 139°41'0 0.0
2017-Dec-02 23:59N 35°26' E 139°41'0 0.0
2017-Dec-02 23:29N 35°26' E 139°41'0 0.0
2017-Dec-02 22:59N 35°26' E 139°41'0 0.0
2017-Dec-02 22:29N 35°26' E 139°41'0 0.8
2017-Dec-02 22:00N 35°26' E 139°41'2 4.3
2017-Dec-02 21:31N 35°26' E 139°43'5 9.0
2017-Dec-02 21:00N 35°28' E 139°48'611.2
2017-Dec-02 20:30N 35°33' E 139°50'4 7.7
2017-Dec-02 20:00N 35°36' E 139°47'0 0.2
2017-Dec-02 19:30N 35°36' E 139°47'0 0.0
2017-Dec-02 19:00N 35°36' E 139°47'0 0.0
2017-Dec-02 18:27N 35°36' E 139°47'0 0.0
2017-Dec-02 18:00N 35°36' E 139°47'0 0.0
2017-Dec-02 17:30N 35°36' E 139°47'0 0.0
2017-Dec-02 17:00N 35°36' E 139°47'0 0.0
2017-Dec-02 16:30N 35°36' E 139°47'0 0.0
2017-Dec-02 16:00N 35°36' E 139°47'0 0.0
2017-Dec-02 15:30N 35°36' E 139°47'0 0.0
2017-Dec-02 15:00N 35°36' E 139°47'0 0.0
2017-Dec-02 14:30N 35°36' E 139°47'0 0.0
2017-Dec-02 14:00N 35°36' E 139°47'0 0.0
2017-Dec-02 13:30N 35°36' E 139°47'0 0.0
2017-Dec-02 13:00N 35°36' E 139°47'0 0.0
2017-Dec-02 12:30N 35°36' E 139°47'0 0.4
2017-Dec-02 12:00N 35°36' E 139°47'3 5.3
2017-Dec-02 11:30N 35°34' E 139°49'510.8
2017-Dec-02 11:00N 35°29' E 139°52'713.7
2017-Dec-02 10:30N 35°24' E 139°46'612.1
2017-Dec-02 10:00N 35°18' E 139°45'612.1
2017-Dec-02 09:30N 35°12' E 139°47'713.6
2017-Dec-02 09:00N 35°06' E 139°44'815.1
2017-Dec-02 08:30N 35°01' E 139°37'815.6
2017-Dec-02 08:00N 34°56' E 139°30'815.6
2017-Dec-02 07:30N 34°52' E 139°22'815.4
2017-Dec-02 07:00N 34°46' E 139°15'814.8
2017-Dec-02 06:30N 34°41' E 139°09'714.8
2017-Dec-02 06:00N 34°36' E 139°03'714.1
2017-Dec-02 05:30N 34°31' E 138°56'914.5
2017-Dec-02 04:54N 34°27' E 138°47'614.6
2017-Dec-02 04:29N 34°25' E 138°40'714.5
2017-Dec-02 04:00N 34°22' E 138°32'715.0
2017-Dec-02 03:30N 34°19' E 138°24'714.8
2017-Dec-02 03:00N 34°16' E 138°16'714.7
2017-Dec-02 02:30N 34°13' E 138°08'714.2
2017-Dec-02 02:00N 34°10' E 137°60'  

Dump ship's entire track history